Time;durP1;ratioP1;P1;durP2;ratioP2;P2;SDS_P1;SDS_P2;PMS_P1;PMS_P2;Temp;Humidity;BMP_temperature;BMP_pressure;BME280_temperature;BME280_humidity;BME280_pressure;Samples;Min_cycle;Max_cycle;Signal;HPM_P1;HPM_P2
2022/01/25 00:10:39;;;;;;;170.55;27.85;;;;;;;5.76;57.29;96781.50;5073589;28;20119;-65
2022/01/25 00:26:32;;;;;;;47.38;22.70;;;;;;;7.12;54.24;96787.72;5068368;28;20036;-64
2022/01/25 00:29:11;;;;;;;44.40;22.70;;;;;;;7.20;53.16;96762.66;5056312;28;20017;-64
2022/01/25 00:31:39;;;;;;;51.95;22.88;;;;;;;7.36;53.19;96785.66;5060810;28;20070;-64
2022/01/25 00:34:05;;;;;;;38.25;21.13;;;;;;;7.37;52.38;96763.47;5072417;28;20035;-64
2022/01/25 00:36:31;;;;;;;37.65;20.92;;;;;;;7.40;51.58;96762.16;5070638;28;20024;-64
2022/01/25 00:38:57;;;;;;;45.20;22.63;;;;;;;7.56;51.43;96764.75;5072356;28;20110;-64
2022/01/25 00:41:24;;;;;;;36.95;21.75;;;;;;;7.68;51.37;96777.13;5067488;28;20059;-64
2022/01/25 00:43:50;;;;;;;36.50;21.30;;;;;;;7.55;50.71;96742.00;5061702;28;20100;-64
2022/01/25 00:46:19;;;;;;;41.67;22.27;;;;;;;7.66;51.21;96764.09;5070726;28;20028;-64
2022/01/25 00:48:48;;;;;;;36.33;20.98;;;;;;;7.62;51.00;96756.88;5071949;28;20016;-65
2022/01/25 00:54:04;;;;;;;37.33;20.77;;;;;;;7.82;50.30;96762.44;5072507;28;20120;-64
2022/01/25 00:56:35;;;;;;;36.00;20.65;;;;;;;7.63;49.17;96761.97;5067828;28;20017;-65
2022/01/25 00:59:07;;;;;;;37.05;19.27;;;;;;;7.55;49.78;96752.56;5055747;28;20025;-67
2022/01/25 01:01:34;;;;;;;29.20;19.35;;;;;;;7.71;50.26;96763.38;5060341;28;20578;-65
2022/01/25 01:04:00;;;;;;;34.22;19.70;;;;;;;7.62;50.04;96741.78;5050823;28;20056;-64
2022/01/25 01:06:26;;;;;;;29.90;18.52;;;;;;;7.76;50.22;96758.13;5050346;28;20487;-65
2022/01/25 01:08:54;;;;;;;32.10;19.80;;;;;;;7.75;50.27;96748.59;5050409;28;20103;-64
2022/01/25 01:11:27;;;;;;;35.38;20.15;;;;;;;7.10;48.83;96752.72;5051633;28;20037;-65
2022/01/25 01:14:13;;;;;;;38.30;19.65;;;;;;;4.58;56.55;96765.66;5059809;28;20138;-64
2022/01/25 01:30:40;;;;;;;38.35;17.90;;;;;;;3.88;59.98;96745.13;5050938;28;20108;-64
2022/01/25 01:41:48;;;;;;;46.22;15.52;;;;;;;2.88;63.62;96781.38;5027741;28;20071;-64
2022/01/25 01:44:28;;;;;;;49.63;16.00;;;;;;;3.37;62.49;96782.34;5053020;28;20024;-64
2022/01/25 01:49:30;;;;;;;71.93;18.58;;;;;;;4.09;60.81;96754.38;5071110;28;20040;-64
2022/01/25 01:51:55;;;;;;;53.95;17.52;;;;;;;4.81;59.41;96777.25;5069884;28;20104;-64
2022/01/25 01:54:21;;;;;;;35.13;16.13;;;;;;;5.15;58.60;96794.97;5071063;28;20139;-64
2022/01/25 01:56:46;;;;;;;48.92;17.73;;;;;;;4.84;57.76;96774.97;5067243;28;20085;-64
2022/01/25 01:59:17;;;;;;;160.73;22.25;;;;;;;5.14;58.04;96772.25;5053608;28;20027;-65
2022/01/25 02:01:46;;;;;;;60.97;18.63;;;;;;;5.78;56.80;96782.06;5049667;28;20040;-64
2022/01/25 02:04:13;;;;;;;52.20;19.27;;;;;;;5.95;55.82;96746.81;5069840;28;20090;-64
2022/01/25 02:06:39;;;;;;;69.50;19.08;;;;;;;6.27;54.96;96761.41;5070618;28;20458;-65
2022/01/25 02:09:07;;;;;;;180.50;21.20;;;;;;;5.69;55.38;96779.00;5070751;28;20032;-65
2022/01/25 02:11:32;;;;;;;132.95;19.45;;;;;;;4.76;56.34;96772.69;5069341;28;20033;-65
2022/01/25 02:14:03;;;;;;;162.27;22.55;;;;;;;5.49;56.29;96776.72;5054524;28;20071;-65
2022/01/25 02:24:44;;;;;;;55.67;19.85;;;;;;;6.16;56.05;96748.00;5030634;28;20126;-66
2022/01/25 02:27:10;;;;;;;63.42;20.27;;;;;;;6.33;55.03;96749.88;5036510;28;20082;-65
2022/01/25 02:29:36;;;;;;;138.32;20.35;;;;;;;6.13;55.00;96760.88;5052539;28;20040;-65
2022/01/25 02:32:03;;;;;;;171.82;22.70;;;;;;;5.83;55.36;96766.31;5061185;28;20062;-65
2022/01/25 02:34:28;;;;;;;204.15;23.15;;;;;;;5.80;55.38;96764.16;5069075;28;20029;-65
2022/01/25 02:37:06;;;;;;;73.15;20.67;;;;;;;6.18;54.65;96753.84;5069733;28;20443;-65
2022/01/25 02:39:32;;;;;;;76.05;20.23;;;;;;;6.34;55.13;96749.63;5069139;28;20025;-65
2022/01/25 02:41:58;;;;;;;125.43;21.80;;;;;;;5.79;54.01;96710.56;5073570;22;20052;-59
2022/01/25 02:44:26;;;;;;;59.08;19.98;;;;;;;6.32;54.73;96740.34;5052377;28;20029;-61
2022/01/25 02:49:30;;;;;;;76.05;22.23;;;;;;;6.78;54.09;96748.00;5070204;28;20485;-60
2022/01/25 02:51:57;;;;;;;105.85;20.85;;;;;;;6.73;53.25;96716.19;5070251;28;20059;-60
2022/01/25 02:54:22;;;;;;;54.42;21.67;;;;;;;6.99;53.57;96743.84;5052302;28;20563;-61
2022/01/25 02:56:49;;;;;;;102.00;21.60;;;;;;;6.89;52.87;96748.16;5050508;28;20024;-59
2022/01/25 02:59:16;;;;;;;56.83;21.60;;;;;;;6.83;52.29;96747.28;5052148;28;20040;-59
2022/01/25 03:01:43;;;;;;;112.55;22.33;;;;;;;6.77;52.48;96698.81;5058148;28;20070;-59
2022/01/25 03:04:10;;;;;;;208.13;25.80;;;;;;;7.10;53.38;96744.00;5052130;28;20123;-59
2022/01/25 03:06:36;;;;;;;109.53;22.20;;;;;;;6.91;52.70;96744.25;5051527;28;20495;-60
2022/01/25 03:09:03;;;;;;;70.70;18.10;;;;;;;5.43;54.47;96759.97;5051604;28;20466;-59
2022/01/25 03:11:29;;;;;;;73.00;18.98;;;;;;;4.46;59.10;96745.59;5051887;28;20029;-60
2022/01/25 03:13:59;;;;;;;71.07;20.23;;;;;;;4.72;58.40;96757.56;5035022;28;20494;-59
2022/01/25 03:17:25;;;;;;;59.35;20.13;;;;;;;5.45;57.08;96754.47;5056920;28;20163;-60
2022/01/25 03:19:45;;;;;;;114.70;21.42;;;;;;;5.47;55.87;96731.28;5035324;28;20044;-59
2022/01/25 03:22:34;;;;;;;54.67;19.65;;;;;;;6.20;56.11;96753.63;5049685;28;20025;-61
2022/01/25 03:24:59;;;;;;;51.17;21.65;;;;;;;6.41;55.03;96736.28;5049673;28;20024;-59
2022/01/25 03:27:25;;;;;;;46.28;18.85;;;;;;;6.68;54.36;96750.50;5048701;28;20032;-59
2022/01/25 03:29:50;;;;;;;43.35;19.33;;;;;;;6.75;54.01;96729.16;5034302;28;20078;-59
2022/01/25 03:32:15;;;;;;;97.35;20.38;;;;;;;6.39;53.94;96752.34;5056576;28;20025;-59
2022/01/25 03:34:41;;;;;;;102.03;20.63;;;;;;;5.28;55.42;96756.22;5049392;28;20021;-61
2022/01/25 03:37:06;;;;;;;77.88;20.42;;;;;;;4.43;55.99;96607.97;5048887;28;20112;-60
2022/01/25 03:39:32;;;;;;;91.80;18.85;;;;;;;5.34;55.92;96748.16;5048781;28;20021;-58
2022/01/25 03:41:57;;;;;;;77.57;19.52;;;;;;;5.30;55.89;96709.28;5048829;28;20032;-60
2022/01/25 03:44:24;;;;;;;80.15;18.38;;;;;;;5.25;56.22;96748.75;5051645;28;20040;-59
2022/01/25 03:52:00;;;;;;;71.93;18.13;;;;;;;4.11;59.15;96748.91;5069252;28;20048;-59
2022/01/25 03:54:25;;;;;;;54.13;16.55;;;;;;;4.54;58.96;96750.50;5069337;28;20029;-59
2022/01/25 03:56:51;;;;;;;81.72;14.90;;;;;;;3.39;60.66;96694.31;5068666;28;20393;-59
2022/01/25 03:59:16;;;;;;;42.83;16.40;;;;;;;4.29;59.63;96722.50;5051172;28;20108;-61
2022/01/25 04:01:42;;;;;;;59.72;15.02;;;;;;;3.01;63.33;96747.06;5040455;28;20032;-58
2022/01/25 04:04:11;;;;;;;61.60;15.57;;;;;;;2.81;64.37;96752.50;5049557;28;20036;-60
2022/01/25 04:06:37;;;;;;;51.65;15.13;;;;;;;3.02;63.73;96751.34;5048924;28;20436;-59
2022/01/25 04:09:08;;;;;;;87.05;16.08;;;;;;;3.67;62.31;96739.53;5048882;28;20082;-60
2022/01/25 04:11:35;;;;;;;81.38;16.60;;;;;;;4.34;60.82;96738.44;5048964;28;20037;-60
2022/01/25 04:14:01;;;;;;;77.10;15.10;;;;;;;4.69;59.53;96745.63;5050955;28;20057;-61
2022/01/25 04:16:35;;;;;;;50.58;16.60;;;;;;;4.52;59.63;96749.94;5055902;28;20294;-58
2022/01/25 04:24:39;;;;;;;37.35;15.98;;;;;;;5.17;57.73;96715.63;5049007;28;20100;-60
2022/01/25 04:26:57;;;;;;;34.95;15.68;;;;;;;5.84;56.10;96708.00;5048360;28;20035;-60
2022/01/25 04:29:24;;;;;;;34.40;16.40;;;;;;;6.20;56.31;96720.06;5050647;28;20146;-61
2022/01/25 04:31:49;;;;;;;42.08;16.25;;;;;;;5.48;55.06;96678.28;5058088;28;20036;-62
2022/01/25 04:50:10;;;;;;;22.65;12.73;;;;;;;5.11;55.06;96704.13;5032368;28;20040;-61
2022/01/25 04:52:47;;;;;;;20.45;12.55;;;;;;;4.39;57.69;96711.41;5032265;28;20037;-59
2022/01/25 04:55:21;;;;;;;22.23;12.45;;;;;;;4.01;58.21;96709.13;5032339;28;20108;-61
2022/01/25 04:57:55;;;;;;;35.67;12.40;;;;;;;3.23;60.91;96691.47;5036770;28;20090;-59
2022/01/25 05:00:22;;;;;;;28.75;12.98;;;;;;;3.41;61.79;96693.28;5045754;28;20029;-60
2022/01/25 05:02:59;;;;;;;28.48;14.88;;;;;;;4.29;60.23;96703.25;5061102;28;20491;-60
2022/01/25 05:10:32;;;;;;;33.97;14.90;;;;;;;5.35;57.93;96681.16;5072121;28;20086;-60
2022/01/25 05:16:06;;;;;;;36.85;15.45;;;;;;;3.74;61.19;96690.25;4955891;28;20027;-59
2022/01/25 05:18:39;;;;;;;32.75;12.48;;;;;;;2.88;62.64;96712.25;4961696;28;20031;-60
2022/01/25 05:23:50;;;;;;;34.22;12.65;;;;;;;2.43;65.55;96709.78;5052019;28;20493;-60
2022/01/25 05:26:15;;;;;;;34.28;14.70;;;;;;;3.88;61.58;96671.41;5051288;28;20048;-61
2022/01/25 05:28:41;;;;;;;30.23;14.88;;;;;;;4.83;60.51;96719.84;5052299;28;20033;-60
2022/01/25 05:31:06;;;;;;;64.07;16.02;;;;;;;4.60;59.57;96710.88;5054589;28;20028;-61
2022/01/25 05:33:32;;;;;;;41.33;15.30;;;;;;;4.16;59.95;96701.63;5063099;28;20440;-59
2022/01/25 05:35:57;;;;;;;34.10;15.05;;;;;;;5.05;58.93;96712.97;5071301;28;20032;-60
2022/01/25 05:38:23;;;;;;;32.55;15.32;;;;;;;5.39;57.62;96703.41;5070649;28;20028;-60
2022/01/25 05:40:58;;;;;;;35.03;15.60;;;;;;;5.50;56.88;96675.41;5071322;28;20050;-60
2022/01/25 05:46:15;;;;;;;43.72;17.75;;;;;;;5.75;56.39;96709.41;4993581;28;20029;-58
2022/01/25 05:48:41;;;;;;;43.90;17.15;;;;;;;5.67;56.16;96721.13;5062399;28;20021;-60
2022/01/25 05:51:07;;;;;;;42.00;15.95;;;;;;;5.66;56.39;96687.84;5071036;28;20031;-62
2022/01/25 05:53:33;;;;;;;39.83;17.10;;;;;;;6.03;55.98;96710.47;5070481;28;20519;-62
2022/01/25 05:55:58;;;;;;;43.47;15.52;;;;;;;5.67;56.22;96676.25;5070807;28;20103;-62
2022/01/25 05:58:24;;;;;;;45.05;18.05;;;;;;;5.60;55.41;96709.91;5063055;28;20040;-64
2022/01/25 06:00:50;;;;;;;39.92;16.77;;;;;;;5.88;55.51;96703.84;5054074;28;20032;-60
2022/01/25 06:03:16;;;;;;;43.17;17.17;;;;;;;5.76;55.97;96660.84;5062610;28;20049;-60
2022/01/25 06:05:41;;;;;;;41.35;17.88;;;;;;;5.92;55.77;96691.81;5070528;28;20647;-60
2022/01/25 06:08:07;;;;;;;39.42;17.38;;;;;;;5.44;55.26;96658.66;5070149;28;20462;-61
2022/01/25 06:10:33;;;;;;;42.00;18.17;;;;;;;5.74;55.75;96679.56;5070464;28;20033;-60
2022/01/25 06:12:59;;;;;;;48.35;18.60;;;;;;;6.09;55.22;96704.25;5067796;28;20017;-61
2022/01/25 06:15:25;;;;;;;47.70;18.63;;;;;;;5.72;55.44;96638.59;5053048;28;20024;-62
2022/01/25 06:17:50;;;;;;;44.85;19.10;;;;;;;5.89;55.77;96659.78;5058218;28;20430;-62
2022/01/25 06:20:16;;;;;;;39.95;18.63;;;;;;;6.25;54.83;96699.03;5050382;28;20060;-63
2022/01/25 06:22:42;;;;;;;36.83;17.33;;;;;;;6.26;55.43;96686.59;5050618;28;20363;-62
2022/01/25 06:25:10;;;;;;;51.38;20.35;;;;;;;6.14;55.05;96668.19;5049997;28;20045;-63
2022/01/25 06:27:38;;;;;;;46.40;19.30;;;;;;;6.29;55.55;96685.31;5049919;28;20017;-64
2022/01/25 06:30:04;;;;;;;55.03;20.08;;;;;;;6.29;54.37;96678.19;5053587;28;20024;-64
2022/01/25 06:32:30;;;;;;;66.22;21.27;;;;;;;6.41;53.88;96699.28;5058324;28;20033;-63
2022/01/25 06:34:55;;;;;;;47.88;19.70;;;;;;;5.33;55.09;96677.16;5068431;28;20039;-61
2022/01/25 06:37:20;;;;;;;53.08;19.75;;;;;;;5.61;54.99;96692.22;5069833;28;20028;-61
2022/01/25 06:39:46;;;;;;;53.85;20.83;;;;;;;5.72;54.88;96683.47;5070076;28;20028;-63
2022/01/25 06:42:11;;;;;;;50.83;21.50;;;;;;;5.87;54.49;96677.69;5069795;28;20058;-62
2022/01/25 06:44:37;;;;;;;45.80;21.45;;;;;;;6.06;54.72;96680.97;5054995;28;20103;-63
2022/01/25 06:47:04;;;;;;;45.58;20.45;;;;;;;5.97;55.26;96678.69;5040975;28;20009;-65
2022/01/25 06:49:29;;;;;;;47.15;21.40;;;;;;;6.12;54.84;96675.53;5064579;28;20116;-62
2022/01/25 06:51:55;;;;;;;50.65;21.63;;;;;;;6.26;54.29;96683.97;5069807;28;20481;-60
2022/01/25 06:54:20;;;;;;;50.00;22.50;;;;;;;6.42;54.15;96690.31;5051716;28;20021;-61
2022/01/25 06:56:46;;;;;;;48.55;22.50;;;;;;;5.50;55.10;96685.94;5068824;28;20544;-62
2022/01/25 06:59:11;;;;;;;51.80;23.08;;;;;;;5.90;55.38;96711.56;5058421;28;20266;-61
2022/01/25 07:01:36;;;;;;;55.53;23.60;;;;;;;5.52;55.51;96675.94;5058531;28;20034;-61
2022/01/25 07:04:02;;;;;;;52.38;23.45;;;;;;;4.60;57.74;96702.97;5060284;28;20469;-60
2022/01/25 07:06:28;;;;;;;57.22;22.17;;;;;;;3.52;60.86;96695.16;5051184;28;20036;-61
2022/01/25 07:08:54;;;;;;;66.15;22.35;;;;;;;3.78;61.30;96728.25;5051109;28;20035;-60
2022/01/25 07:11:19;;;;;;;66.75;25.00;;;;;;;3.92;61.66;96724.44;5051377;28;20039;-61
2022/01/25 07:13:46;;;;;;;64.53;24.92;;;;;;;3.93;62.36;96731.28;5061851;28;20037;-62
2022/01/25 07:16:11;;;;;;;63.10;24.67;;;;;;;4.08;60.57;96691.41;5051600;28;20066;-64
2022/01/25 07:18:37;;;;;;;60.60;23.48;;;;;;;3.33;63.54;96704.91;5056934;28;20028;-60
2022/01/25 07:21:02;;;;;;;64.30;26.85;;;;;;;4.67;60.22;96671.25;5049147;28;20033;-60
2022/01/25 07:23:28;;;;;;;67.53;26.67;;;;;;;5.61;57.60;96702.78;5049257;28;20055;-60
2022/01/25 07:25:53;;;;;;;75.95;27.52;;;;;;;5.94;57.27;96696.88;5049019;28;20075;-61
2022/01/25 07:28:19;;;;;;;69.32;27.52;;;;;;;4.88;57.46;96741.88;5048010;28;20029;-60
2022/01/25 07:30:44;;;;;;;69.18;26.05;;;;;;;3.60;62.30;96727.25;5033504;28;20037;-59
2022/01/25 07:33:10;;;;;;;58.08;25.63;;;;;;;3.91;62.00;96728.09;5057724;28;20383;-58
2022/01/25 07:35:36;;;;;;;67.35;26.13;;;;;;;3.69;63.26;96734.88;5047674;28;20142;-58
2022/01/25 07:38:03;;;;;;;59.40;24.90;;;;;;;3.77;62.56;96721.38;5048683;28;20032;-58
2022/01/25 07:40:29;;;;;;;64.65;24.00;;;;;;;3.25;62.97;96724.41;5049093;28;20025;-60
2022/01/25 07:42:55;;;;;;;49.83;20.27;;;;;;;1.91;67.13;96690.75;5048886;28;20033;-59
2022/01/25 07:45:21;;;;;;;57.65;26.08;;;;;;;4.12;63.36;96734.69;5051139;28;20055;-61
2022/01/25 07:47:47;;;;;;;50.90;20.42;;;;;;;3.37;62.13;96701.59;5057927;28;20020;-61
2022/01/25 07:50:13;;;;;;;47.13;22.42;;;;;;;2.56;64.91;96707.06;5061283;28;20028;-59
2022/01/25 07:52:38;;;;;;;45.00;22.70;;;;;;;2.96;63.94;96711.94;5068883;28;20048;-59
2022/01/25 07:55:05;;;;;;;46.38;23.30;;;;;;;4.50;60.85;96734.34;5068602;28;20029;-60
2022/01/25 07:57:30;;;;;;;44.00;20.77;;;;;;;4.17;58.59;96722.47;5068508;28;20386;-60
2022/01/25 07:59:57;;;;;;;42.10;20.98;;;;;;;3.57;60.75;96711.91;5054810;28;20036;-59
2022/01/25 08:02:22;;;;;;;46.50;22.25;;;;;;;3.39;62.22;96746.13;5055576;28;20029;-62
2022/01/25 08:04:48;;;;;;;42.35;20.88;;;;;;;2.31;65.28;96725.44;5060276;28;20489;-59
2022/01/25 08:07:13;;;;;;;44.35;22.05;;;;;;;3.47;62.26;96743.19;5050229;28;20036;-60
2022/01/25 08:09:39;;;;;;;43.65;22.70;;;;;;;3.41;62.42;96722.22;5068360;28;20032;-60
2022/01/25 08:12:05;;;;;;;39.75;22.30;;;;;;;4.30;59.74;96726.75;5068716;28;20040;-59
2022/01/25 08:14:31;;;;;;;41.67;22.38;;;;;;;3.65;60.89;96739.75;5058358;28;20025;-59
2022/01/25 08:16:57;;;;;;;43.72;23.02;;;;;;;4.20;60.44;96758.09;5055879;28;20032;-60
2022/01/25 08:19:22;;;;;;;44.30;21.30;;;;;;;3.35;61.53;96753.63;5063967;28;20469;-59
2022/01/25 08:21:48;;;;;;;44.30;22.45;;;;;;;2.57;64.33;96753.31;5072668;28;20028;-59
2022/01/25 08:24:15;;;;;;;41.53;22.48;;;;;;;3.23;62.92;96757.22;5072148;28;20028;-60
2022/01/25 08:26:42;;;;;;;44.90;20.02;;;;;;;2.93;62.58;96752.63;5054291;28;20555;-59
2022/01/25 08:29:08;;;;;;;47.13;21.63;;;;;;;3.54;61.48;96770.25;5065636;28;20748;-60
2022/01/25 08:31:34;;;;;;;52.15;20.08;;;;;;;3.24;61.30;96754.34;5054707;28;20064;-59
2022/01/25 08:34:00;;;;;;;43.13;22.00;;;;;;;3.27;62.16;96753.09;5063154;28;20469;-59
2022/01/25 08:36:27;;;;;;;39.10;20.98;;;;;;;2.62;63.91;96752.69;5072006;28;20048;-59
2022/01/25 08:38:53;;;;;;;42.88;20.70;;;;;;;2.98;61.70;96721.25;5053493;28;20028;-59
2022/01/25 08:41:19;;;;;;;41.33;23.52;;;;;;;4.08;60.83;96733.53;5082356;22;20048;-70
2022/01/25 08:43:45;;;;;;;43.58;24.45;;;;;;;4.99;58.32;96740.25;5065564;28;20619;-68
2022/01/25 08:46:11;;;;;;;43.40;23.75;;;;;;;3.84;58.90;96732.66;5051241;28;20211;-67
2022/01/25 08:48:36;;;;;;;41.78;22.10;;;;;;;4.12;58.93;96722.34;5042715;28;20056;-67
2022/01/25 08:51:02;;;;;;;36.75;21.77;;;;;;;4.82;56.96;96744.63;5051496;28;20597;-67
2022/01/25 08:53:28;;;;;;;36.40;22.50;;;;;;;5.30;56.73;96735.66;5052092;28;20100;-70
2022/01/25 08:55:53;;;;;;;38.53;22.15;;;;;;;4.27;58.21;96736.94;5052172;28;20237;-67
2022/01/25 08:58:18;;;;;;;36.88;22.33;;;;;;;5.14;56.70;96722.16;5051198;28;20112;-67
2022/01/25 09:00:44;;;;;;;36.58;22.70;;;;;;;4.92;56.90;96734.31;5048149;28;20036;-69
2022/01/25 09:03:11;;;;;;;40.85;21.92;;;;;;;4.16;59.02;96751.66;5047879;28;20064;-68
2022/01/25 09:05:37;;;;;;;38.10;23.13;;;;;;;3.72;60.32;96742.31;5047550;28;20029;-66
2022/01/25 09:08:04;;;;;;;40.78;23.58;;;;;;;5.56;57.74;96735.16;5049920;28;20025;-68
2022/01/25 09:10:30;;;;;;;34.97;21.75;;;;;;;5.24;55.74;96740.03;5051607;28;20701;-69
2022/01/25 09:12:55;;;;;;;41.70;23.58;;;;;;;4.30;57.78;96752.28;5052123;28;20021;-69
2022/01/25 09:15:21;;;;;;;38.03;22.95;;;;;;;4.35;58.06;96740.06;5047229;28;20029;-67
2022/01/25 09:17:47;;;;;;;34.25;21.90;;;;;;;5.15;56.37;96752.75;5048698;28;20037;-69
2022/01/25 09:20:13;;;;;;;35.60;21.23;;;;;;;4.56;57.51;96751.91;5042699;28;20029;-68
2022/01/25 09:22:38;;;;;;;31.10;20.73;;;;;;;4.98;56.16;96757.13;5050026;28;20032;-67
2022/01/25 09:25:04;;;;;;;32.35;22.50;;;;;;;5.84;55.07;96736.25;5050329;28;20691;-67
2022/01/25 09:27:30;;;;;;;32.72;21.92;;;;;;;5.72;55.29;96729.16;5050403;28;20033;-67
2022/01/25 09:29:56;;;;;;;33.80;20.58;;;;;;;5.24;54.46;96740.03;5043350;28;20033;-67
2022/01/25 09:32:22;;;;;;;35.20;21.55;;;;;;;4.59;58.55;96751.44;5034239;28;20033;-67
2022/01/25 09:34:48;;;;;;;34.95;21.50;;;;;;;3.55;61.08;96757.88;5029580;28;20037;-65
2022/01/25 09:37:14;;;;;;;35.88;21.67;;;;;;;3.26;63.29;96756.75;5031099;28;20029;-64
2022/01/25 09:39:40;;;;;;;40.25;20.38;;;;;;;3.43;62.64;96755.19;5029894;28;20060;-64
2022/01/25 09:42:09;;;;;;;38.83;23.10;;;;;;;4.12;61.35;96746.03;5031101;28;20690;-64
2022/01/25 09:44:39;;;;;;;37.05;22.95;;;;;;;4.06;60.32;96702.16;5038033;28;20025;-69
2022/01/25 09:47:06;;;;;;;36.30;22.17;;;;;;;3.37;62.14;96738.44;5049282;28;20052;-64
2022/01/25 09:49:33;;;;;;;35.05;22.13;;;;;;;3.55;62.46;96742.91;5041194;28;20429;-63
2022/01/25 09:52:07;;;;;;;35.65;22.73;;;;;;;4.04;61.97;96758.69;5049543;28;20123;-66
2022/01/25 09:54:34;;;;;;;36.08;22.60;;;;;;;4.41;60.66;96746.25;5031622;28;20113;-66
2022/01/25 09:57:01;;;;;;;33.65;22.10;;;;;;;4.52;60.40;96756.00;5029470;28;20022;-65
2022/01/25 09:59:28;;;;;;;37.70;23.52;;;;;;;5.03;58.50;96757.25;5036635;28;20597;-66
2022/01/25 10:01:54;;;;;;;34.42;22.48;;;;;;;5.51;57.73;96745.63;5049309;28;20112;-63
2022/01/25 10:04:38;;;;;;;34.13;22.02;;;;;;;5.98;56.05;96746.31;5042483;28;20024;-66
2022/01/25 10:07:05;;;;;;;33.03;20.92;;;;;;;6.12;54.73;96744.22;5050414;28;20017;-64
2022/01/25 10:09:31;;;;;;;33.75;21.10;;;;;;;5.08;57.58;96743.38;5049253;28;20048;-63
2022/01/25 10:11:57;;;;;;;37.25;20.92;;;;;;;4.53;59.89;96741.00;5050614;28;20029;-64
2022/01/25 10:14:23;;;;;;;33.13;21.10;;;;;;;4.37;60.53;96737.19;5047328;28;20086;-64
2022/01/25 10:16:54;;;;;;;32.88;21.92;;;;;;;5.10;59.12;96736.00;5050122;28;20033;-64
2022/01/25 10:19:24;;;;;;;32.15;21.77;;;;;;;5.61;58.30;96742.38;5042133;28;20036;-66
2022/01/25 10:21:51;;;;;;;31.00;19.75;;;;;;;4.69;59.66;96727.97;5049296;28;20550;-64
2022/01/25 10:24:19;;;;;;;32.17;20.42;;;;;;;4.46;61.80;96740.31;5049540;28;20028;-64
2022/01/25 10:27:02;;;;;;;32.10;20.42;;;;;;;5.34;59.84;96723.63;5050280;28;20052;-64
2022/01/25 10:29:34;;;;;;;30.00;18.73;;;;;;;4.38;62.60;96739.59;5049082;28;20241;-64
2022/01/25 10:32:06;;;;;;;22.98;14.43;;;;;;;4.46;62.35;96740.31;5043414;28;20059;-64
2022/01/25 10:34:33;;;;;;;24.60;16.70;;;;;;;4.45;62.44;96726.31;5041792;28;20701;-64
2022/01/25 10:37:05;;;;;;;22.60;16.02;;;;;;;4.37;62.63;96729.28;5048665;28;20063;-64
2022/01/25 10:39:33;;;;;;;27.75;17.23;;;;;;;5.14;60.70;96722.16;5048493;28;20028;-67
2022/01/25 10:42:11;;;;;;;26.15;16.95;;;;;;;4.56;61.37;96724.75;5048812;28;20037;-67
2022/01/25 10:44:53;;;;;;;25.30;15.95;;;;;;;4.62;62.04;96703.56;5043070;28;20045;-65
2022/01/25 10:47:40;;;;;;;17.70;13.38;;;;;;;4.11;62.46;96712.03;5035370;28;20043;-68
2022/01/25 10:50:19;;;;;;;20.10;14.40;;;;;;;5.05;60.68;96712.16;5029848;28;20067;-65
2022/01/25 10:52:47;;;;;;;17.80;13.68;;;;;;;5.61;58.98;96697.50;5048717;28;20478;-67
2022/01/25 10:55:13;;;;;;;18.48;14.10;;;;;;;5.80;58.38;96677.81;5048980;28;20025;-68
2022/01/25 10:57:39;;;;;;;17.42;13.52;;;;;;;5.57;59.40;96702.44;5049981;28;20044;-68
2022/01/25 11:00:09;;;;;;;17.67;13.90;;;;;;;6.07;57.72;96693.13;5042740;28;20032;-66
2022/01/25 11:02:47;;;;;;;17.10;13.27;;;;;;;7.34;55.82;96697.75;5048520;28;20032;-66
2022/01/25 11:05:13;;;;;;;18.02;13.35;;;;;;;6.96;55.57;96690.59;5030606;28;20040;-66
2022/01/25 11:07:40;;;;;;;32.42;16.75;;;;;;;7.00;55.53;96679.28;5029774;28;20471;-60
2022/01/25 11:10:08;;;;;;;22.48;14.48;;;;;;;5.76;58.76;96687.25;5030634;28;20021;-71
2022/01/25 11:12:38;;;;;;;16.77;12.88;;;;;;;6.57;57.17;96674.69;5030532;28;20037;-73
2022/01/25 11:15:05;;;;;;;17.63;13.40;;;;;;;7.30;54.74;96649.78;5031001;28;20037;-65
2022/01/25 11:17:33;;;;;;;13.27;11.82;;;;;;;7.49;54.50;96666.19;5047734;28;20029;-65
2022/01/25 11:20:00;;;;;;;11.55;10.35;;;;;;;8.02;53.31;96650.59;5045609;28;20017;-65
2022/01/25 11:22:27;;;;;;;13.00;11.40;;;;;;;8.72;52.49;96676.16;5028453;28;20029;-65
2022/01/25 11:25:03;;;;;;;12.68;11.18;;;;;;;8.46;51.56;96669.06;5029486;28;20049;-65
2022/01/25 11:27:31;;;;;;;12.25;10.25;;;;;;;8.38;51.95;96658.91;5028069;28;20017;-66
2022/01/25 11:30:00;;;;;;;9.82;8.82;;;;;;;8.97;51.22;96664.13;5029580;28;20031;-65
2022/01/25 11:32:31;;;;;;;10.00;9.02;;;;;;;9.31;50.48;96661.91;5048893;28;20029;-66
2022/01/25 11:34:57;;;;;;;10.15;9.05;;;;;;;7.97;52.26;96650.53;5039574;28;20017;-65
2022/01/25 11:37:34;;;;;;;10.27;9.23;;;;;;;8.91;50.88;96643.94;5047872;28;20462;-66
2022/01/25 11:39:59;;;;;;;10.75;9.15;;;;;;;7.92;51.64;96626.66;5047831;28;20083;-65
2022/01/25 11:42:26;;;;;;;9.73;8.18;;;;;;;8.48;51.32;96651.84;5049313;28;20032;-66
2022/01/25 11:44:55;;;;;;;9.10;8.20;;;;;;;7.74;53.00;96651.66;5043878;28;20116;-66
2022/01/25 11:47:30;;;;;;;12.60;8.63;;;;;;;8.17;52.33;96650.75;5047663;28;20017;-67
2022/01/25 11:49:59;;;;;;;9.18;6.57;;;;;;;6.98;54.16;96632.97;5040620;28;20030;-67
2022/01/25 11:52:27;;;;;;;7.20;6.47;;;;;;;7.15;54.55;96654.09;5053222;28;20025;-68
2022/01/25 11:55:13;;;;;;;6.80;6.10;;;;;;;7.50;53.54;96653.75;5051876;28;20036;-66
2022/01/25 11:57:47;;;;;;;8.10;6.65;;;;;;;7.72;52.27;96646.56;5051368;28;20112;-67
2022/01/25 12:00:13;;;;;;;7.13;6.43;;;;;;;8.22;51.26;96640.19;5048222;28;20021;-65
2022/01/25 12:02:47;;;;;;;7.38;6.68;;;;;;;6.78;55.01;96655.44;5052910;28;20052;-64
2022/01/25 12:05:24;;;;;;;9.00;7.40;;;;;;;7.01;54.36;96635.13;5032783;28;20565;-67
2022/01/25 12:08:10;;;;;;;8.20;7.43;;;;;;;8.16;51.80;96643.84;5032354;28;20021;-65
2022/01/25 12:10:40;;;;;;;10.73;8.43;;;;;;;8.05;52.39;96640.31;5032954;28;20021;-65
2022/01/25 12:13:23;;;;;;;17.20;12.65;;;;;;;9.16;50.44;96638.75;5033216;28;20053;-65
2022/01/25 12:16:23;;;;;;;18.85;13.70;;;;;;;7.73;53.52;96645.56;5042053;28;20051;-67
2022/01/25 12:19:02;;;;;;;19.42;13.70;;;;;;;7.81;53.14;96634.50;5046560;28;20100;-65
2022/01/25 12:21:50;;;;;;;16.58;13.32;;;;;;;8.31;52.21;96633.38;5047795;28;20024;-64
2022/01/25 12:24:18;;;;;;;20.95;14.27;;;;;;;9.02;50.41;96625.16;5052608;28;20025;-66
2022/01/25 12:27:00;;;;;;;16.25;14.07;;;;;;;8.37;51.84;96625.50;5052477;28;20028;-65
2022/01/25 12:29:38;;;;;;;16.30;13.98;;;;;;;8.00;53.25;96618.25;5050715;28;20025;-65
2022/01/25 12:32:36;;;;;;;23.67;14.82;;;;;;;9.17;50.95;96610.34;5050438;28;20036;-65
2022/01/25 12:35:14;;;;;;;17.02;14.25;;;;;;;9.29;50.63;96601.09;5044081;28;20082;-65
2022/01/25 12:40:25;;;;;;;16.33;12.40;;;;;;;8.44;51.19;96605.66;5052310;28;20029;-65
2022/01/25 12:43:02;;;;;;;14.80;11.65;;;;;;;9.20;50.27;96607.97;5052583;28;20033;-65
2022/01/25 12:45:31;;;;;;;12.98;10.88;;;;;;;8.63;51.36;96607.91;5049053;28;20030;-65
2022/01/25 12:48:02;;;;;;;12.27;11.00;;;;;;;8.56;50.29;96595.69;5050317;28;20021;-65
2022/01/25 12:50:28;;;;;;;13.20;11.60;;;;;;;9.12;49.07;96595.22;5042500;28;20021;-66
2022/01/25 12:52:54;;;;;;;12.13;10.40;;;;;;;9.67;47.79;96596.44;5051165;28;20665;-65
2022/01/25 12:55:27;;;;;;;13.15;9.98;;;;;;;8.24;51.36;96601.00;5050704;28;20033;-65
2022/01/25 12:57:53;;;;;;;12.02;10.70;;;;;;;9.17;48.77;96597.88;5052069;28;20059;-65
2022/01/25 13:00:22;;;;;;;15.93;9.63;;;;;;;9.53;48.43;96592.72;5049150;28;20060;-65
2022/01/25 13:02:47;;;;;;;13.57;10.05;;;;;;;8.78;49.35;96592.09;5051943;28;20425;-66
2022/01/25 13:05:14;;;;;;;11.82;10.50;;;;;;;8.51;49.42;96574.44;5043591;28;20017;-66
2022/01/25 13:07:40;;;;;;;13.65;10.73;;;;;;;8.88;49.09;96592.16;5051545;28;20881;-65
2022/01/25 13:10:09;;;;;;;11.73;10.63;;;;;;;9.10;49.04;96594.66;5050643;28;20108;-65
2022/01/25 13:12:37;;;;;;;11.57;10.18;;;;;;;8.61;49.39;96584.31;5051956;28;20029;-66
2022/01/25 13:17:55;;;;;;;13.30;10.80;;;;;;;9.72;46.60;96572.53;5017958;28;20051;-65
2022/01/25 13:20:21;;;;;;;11.75;10.45;;;;;;;8.60;48.47;96574.75;5038031;28;20100;-66